ROK weather

Rockhampton Airport
Rockhampton, Queensland, Australia

Public forecast

Using degrees Celsius for public forecast. Weather courtesy of forecast.io.

METAR (pilot weather report)

Retrieved 2018/11/17 01:30 UTC (29 minutes ago):

YBRK 170130Z AUTO 08007KT 360V110 9999 // SCT049 31/16 Q1014

TAF (pilot weather forecast)

Forecast is more than 12 hours old.

Retrieved 2018/11/16 00:37 UTC (1 day ago):

TAF YBRK 162308Z 1700/1724 07010KT CAVOK FM171100 07006KT 9999 -SHRA SCT040 OVC110 FM171400 VRB04KT 9999 SCT020 FM172200 07010KT 9999 FEW040